Avon, Mississippi
Current Conditions -  °F | °C
As of 7:53 AM on Saturday 22 Nov 2014 (Local Time) from KGLH Reporting Station
Broken Clouds Broken Clouds  
Wind Chill: 54°   Ceiling: 12000
Heat Index: 54°   Visibility: 8mi
Dew Point: 48°   Wind: 8mph
Humidity: 80%   Direction: 140°SE
Pressure: 30.23"   Gusts: NA
Location:  33.23°N, 91.05°W
Report Text: KGLH 221353Z AUTO 14007KT 8SM FEW060 SCT095 BKN120 12/09 A3023 RMK AO2 SLP245 T01220089
Loading
Personal Weather Stations






























Interactive Weather Map New forecast layout! Learn more

10-Day Weather Forecast

Advertisements
Track Severe Weather on mobile